Terminal Aerodrome Forecast
Issued by NWS Charleston, WV

Current Version | Previous Version | Graphics & Text | Print | Product List | Glossary On
Versions: 1 2 3 4 5 6 7 8 9 10 11 12 13 14 15 16 17 18 19 20 21 22 23 24
000
FTUS41 KRLX 310848 AAA
TAFCRW
TAF AMD
KCRW 310848Z 3109/0106 00000KT 1/2SM FG BKN001 BKN120
     FM311100 00000KT 6SM BR SCT045 BKN120
     FM311300 00000KT P6SM BKN045
     FM010100 00000KT P6SM SCT050=

USA.gov is the U.S. government's official web portal to all federal, state and local government web resources and services.